sensor_id;sensor_type;location;lat;lon;timestamp;P1;durP1;ratioP1;P2;durP2;ratioP2
38021;SDS011;23832;43.216;27.946;2023-03-14T00:01:09;152.60;;;143.25;;
38021;SDS011;23832;43.216;27.946;2023-03-14T00:03:12;158.18;;;148.13;;
38021;SDS011;23832;43.216;27.946;2023-03-14T00:05:14;158.32;;;148.43;;
38021;SDS011;23832;43.216;27.946;2023-03-14T00:07:18;153.43;;;144.07;;
38021;SDS011;23832;43.216;27.946;2023-03-14T00:09:20;150.80;;;141.30;;
38021;SDS011;23832;43.216;27.946;2023-03-14T00:11:22;156.13;;;146.55;;
38021;SDS011;23832;43.216;27.946;2023-03-14T00:13:24;154.57;;;144.95;;
38021;SDS011;23832;43.216;27.946;2023-03-14T00:15:26;155.90;;;146.18;;
38021;SDS011;23832;43.216;27.946;2023-03-14T00:17:28;156.10;;;146.52;;
38021;SDS011;23832;43.216;27.946;2023-03-14T00:19:30;152.68;;;143.18;;
38021;SDS011;23832;43.216;27.946;2023-03-14T00:21:35;156.77;;;147.23;;
38021;SDS011;23832;43.216;27.946;2023-03-14T00:23:39;154.45;;;144.85;;
38021;SDS011;23832;43.216;27.946;2023-03-14T00:25:42;153.70;;;144.38;;
38021;SDS011;23832;43.216;27.946;2023-03-14T00:27:44;152.35;;;142.77;;
38021;SDS011;23832;43.216;27.946;2023-03-14T00:29:46;148.63;;;139.50;;
38021;SDS011;23832;43.216;27.946;2023-03-14T00:31:48;151.63;;;142.45;;
38021;SDS011;23832;43.216;27.946;2023-03-14T00:33:51;153.60;;;143.95;;
38021;SDS011;23832;43.216;27.946;2023-03-14T00:35:55;151.00;;;141.88;;
38021;SDS011;23832;43.216;27.946;2023-03-14T00:37:57;158.05;;;148.18;;
38021;SDS011;23832;43.216;27.946;2023-03-14T00:40:01;156.95;;;147.20;;
38021;SDS011;23832;43.216;27.946;2023-03-14T00:42:05;154.48;;;145.13;;
38021;SDS011;23832;43.216;27.946;2023-03-14T00:44:07;155.80;;;146.20;;
38021;SDS011;23832;43.216;27.946;2023-03-14T00:46:09;151.75;;;142.55;;
38021;SDS011;23832;43.216;27.946;2023-03-14T00:48:13;152.23;;;142.95;;
38021;SDS011;23832;43.216;27.946;2023-03-14T00:50:15;151.93;;;142.68;;
38021;SDS011;23832;43.216;27.946;2023-03-14T00:52:17;155.18;;;145.77;;
38021;SDS011;23832;43.216;27.946;2023-03-14T00:54:19;153.52;;;143.82;;
38021;SDS011;23832;43.216;27.946;2023-03-14T00:56:22;156.75;;;147.27;;
38021;SDS011;23832;43.216;27.946;2023-03-14T00:58:25;153.65;;;144.10;;
38021;SDS011;23832;43.216;27.946;2023-03-14T01:00:26;150.10;;;141.10;;
38021;SDS011;23832;43.216;27.946;2023-03-14T01:02:28;153.85;;;144.43;;
38021;SDS011;23832;43.216;27.946;2023-03-14T01:04:30;154.40;;;145.05;;
38021;SDS011;23832;43.216;27.946;2023-03-14T01:06:32;150.88;;;141.63;;
38021;SDS011;23832;43.216;27.946;2023-03-14T01:08:34;153.60;;;144.30;;
38021;SDS011;23832;43.216;27.946;2023-03-14T01:10:37;149.90;;;140.85;;
38021;SDS011;23832;43.216;27.946;2023-03-14T01:12:41;153.93;;;144.57;;
38021;SDS011;23832;43.216;27.946;2023-03-14T01:14:43;152.88;;;143.68;;
38021;SDS011;23832;43.216;27.946;2023-03-14T01:16:45;152.95;;;143.63;;
38021;SDS011;23832;43.216;27.946;2023-03-14T01:18:47;154.02;;;144.80;;
38021;SDS011;23832;43.216;27.946;2023-03-14T01:20:50;151.15;;;142.15;;
38021;SDS011;23832;43.216;27.946;2023-03-14T01:22:52;153.10;;;143.85;;
38021;SDS011;23832;43.216;27.946;2023-03-14T01:24:54;152.88;;;143.32;;
38021;SDS011;23832;43.216;27.946;2023-03-14T01:26:56;150.98;;;141.98;;
38021;SDS011;23832;43.216;27.946;2023-03-14T01:29:00;150.95;;;141.80;;
38021;SDS011;23832;43.216;27.946;2023-03-14T01:31:03;156.65;;;147.13;;
38021;SDS011;23832;43.216;27.946;2023-03-14T01:33:06;152.45;;;143.23;;
38021;SDS011;23832;43.216;27.946;2023-03-14T01:35:08;153.90;;;144.65;;
38021;SDS011;23832;43.216;27.946;2023-03-14T01:37:10;155.23;;;145.88;;
38021;SDS011;23832;43.216;27.946;2023-03-14T01:39:12;155.15;;;145.88;;
38021;SDS011;23832;43.216;27.946;2023-03-14T01:41:15;149.57;;;140.65;;
38021;SDS011;23832;43.216;27.946;2023-03-14T01:43:18;150.45;;;141.23;;
38021;SDS011;23832;43.216;27.946;2023-03-14T01:48:15;154.73;;;145.30;;
38021;SDS011;23832;43.216;27.946;2023-03-14T01:50:17;153.45;;;144.05;;
38021;SDS011;23832;43.216;27.946;2023-03-14T01:52:20;154.68;;;145.38;;
38021;SDS011;23832;43.216;27.946;2023-03-14T01:54:26;154.65;;;145.32;;
38021;SDS011;23832;43.216;27.946;2023-03-14T01:56:33;155.07;;;145.60;;
38021;SDS011;23832;43.216;27.946;2023-03-14T01:58:36;154.50;;;145.10;;
38021;SDS011;23832;43.216;27.946;2023-03-14T02:00:39;153.77;;;144.48;;
38021;SDS011;23832;43.216;27.946;2023-03-14T02:02:45;153.60;;;144.30;;
38021;SDS011;23832;43.216;27.946;2023-03-14T02:04:48;153.32;;;144.13;;
38021;SDS011;23832;43.216;27.946;2023-03-14T02:06:52;157.02;;;147.35;;
38021;SDS011;23832;43.216;27.946;2023-03-14T02:08:59;156.90;;;147.25;;
38021;SDS011;23832;43.216;27.946;2023-03-14T02:11:01;150.82;;;141.75;;
38021;SDS011;23832;43.216;27.946;2023-03-14T02:13:04;154.00;;;144.52;;
38021;SDS011;23832;43.216;27.946;2023-03-14T02:15:08;155.48;;;146.05;;
38021;SDS011;23832;43.216;27.946;2023-03-14T02:17:10;154.13;;;144.73;;
38021;SDS011;23832;43.216;27.946;2023-03-14T02:19:14;155.10;;;145.48;;
38021;SDS011;23832;43.216;27.946;2023-03-14T02:21:26;153.55;;;144.30;;
38021;SDS011;23832;43.216;27.946;2023-03-14T02:23:41;156.15;;;146.75;;
38021;SDS011;23832;43.216;27.946;2023-03-14T02:25:51;156.15;;;146.77;;
38021;SDS011;23832;43.216;27.946;2023-03-14T02:28:00;151.80;;;142.40;;
38021;SDS011;23832;43.216;27.946;2023-03-14T02:30:03;153.05;;;143.85;;
38021;SDS011;23832;43.216;27.946;2023-03-14T02:32:08;150.95;;;141.93;;
38021;SDS011;23832;43.216;27.946;2023-03-14T02:34:10;155.48;;;145.98;;
38021;SDS011;23832;43.216;27.946;2023-03-14T02:36:13;153.90;;;144.70;;
38021;SDS011;23832;43.216;27.946;2023-03-14T02:38:19;149.70;;;140.50;;
38021;SDS011;23832;43.216;27.946;2023-03-14T02:40:26;153.23;;;143.93;;
38021;SDS011;23832;43.216;27.946;2023-03-14T02:42:28;154.88;;;145.45;;
38021;SDS011;23832;43.216;27.946;2023-03-14T02:44:31;155.75;;;146.15;;
38021;SDS011;23832;43.216;27.946;2023-03-14T02:46:35;152.02;;;142.77;;
38021;SDS011;23832;43.216;27.946;2023-03-14T02:48:38;153.20;;;143.75;;
38021;SDS011;23832;43.216;27.946;2023-03-14T02:50:43;153.07;;;143.50;;
38021;SDS011;23832;43.216;27.946;2023-03-14T02:52:46;153.80;;;144.25;;
38021;SDS011;23832;43.216;27.946;2023-03-14T02:54:49;157.88;;;148.20;;
38021;SDS011;23832;43.216;27.946;2023-03-14T02:56:50;153.90;;;144.20;;
38021;SDS011;23832;43.216;27.946;2023-03-14T02:58:52;151.07;;;141.70;;
38021;SDS011;23832;43.216;27.946;2023-03-14T03:00:56;153.20;;;143.95;;
38021;SDS011;23832;43.216;27.946;2023-03-14T03:02:58;153.98;;;144.30;;
38021;SDS011;23832;43.216;27.946;2023-03-14T03:05:01;156.32;;;146.65;;
38021;SDS011;23832;43.216;27.946;2023-03-14T03:07:03;154.15;;;144.65;;
38021;SDS011;23832;43.216;27.946;2023-03-14T03:09:06;160.00;;;150.13;;
38021;SDS011;23832;43.216;27.946;2023-03-14T03:11:08;157.38;;;147.75;;
38021;SDS011;23832;43.216;27.946;2023-03-14T03:13:10;158.50;;;148.73;;
38021;SDS011;23832;43.216;27.946;2023-03-14T03:15:12;154.75;;;145.30;;
38021;SDS011;23832;43.216;27.946;2023-03-14T03:17:15;155.90;;;146.35;;
38021;SDS011;23832;43.216;27.946;2023-03-14T03:19:17;156.85;;;147.18;;
38021;SDS011;23832;43.216;27.946;2023-03-14T03:21:19;154.02;;;144.68;;
38021;SDS011;23832;43.216;27.946;2023-03-14T03:23:23;155.88;;;146.40;;
38021;SDS011;23832;43.216;27.946;2023-03-14T03:25:25;160.15;;;150.32;;
38021;SDS011;23832;43.216;27.946;2023-03-14T03:27:29;155.98;;;146.27;;
38021;SDS011;23832;43.216;27.946;2023-03-14T03:29:31;157.00;;;147.40;;
38021;SDS011;23832;43.216;27.946;2023-03-14T03:31:33;153.80;;;144.50;;
38021;SDS011;23832;43.216;27.946;2023-03-14T03:33:39;154.30;;;145.00;;
38021;SDS011;23832;43.216;27.946;2023-03-14T03:35:42;155.27;;;145.88;;
38021;SDS011;23832;43.216;27.946;2023-03-14T03:37:45;156.50;;;146.88;;
38021;SDS011;23832;43.216;27.946;2023-03-14T03:39:49;156.68;;;147.20;;
38021;SDS011;23832;43.216;27.946;2023-03-14T03:41:51;155.93;;;146.50;;
38021;SDS011;23832;43.216;27.946;2023-03-14T03:43:53;154.77;;;145.48;;
38021;SDS011;23832;43.216;27.946;2023-03-14T03:45:55;152.85;;;143.55;;
38021;SDS011;23832;43.216;27.946;2023-03-14T03:47:57;156.25;;;146.73;;
38021;SDS011;23832;43.216;27.946;2023-03-14T03:50:02;155.38;;;145.77;;
38021;SDS011;23832;43.216;27.946;2023-03-14T03:52:04;154.07;;;144.63;;
38021;SDS011;23832;43.216;27.946;2023-03-14T03:54:06;153.27;;;143.93;;
38021;SDS011;23832;43.216;27.946;2023-03-14T03:56:08;155.07;;;145.40;;
38021;SDS011;23832;43.216;27.946;2023-03-14T03:58:10;153.98;;;144.65;;
38021;SDS011;23832;43.216;27.946;2023-03-14T04:00:13;157.50;;;148.00;;
38021;SDS011;23832;43.216;27.946;2023-03-14T04:02:15;158.93;;;149.25;;
38021;SDS011;23832;43.216;27.946;2023-03-14T04:04:17;152.68;;;143.40;;
38021;SDS011;23832;43.216;27.946;2023-03-14T04:06:20;159.60;;;149.93;;
38021;SDS011;23832;43.216;27.946;2023-03-14T04:08:22;155.32;;;145.80;;
38021;SDS011;23832;43.216;27.946;2023-03-14T04:10:27;157.45;;;147.68;;
38021;SDS011;23832;43.216;27.946;2023-03-14T04:12:29;160.15;;;149.77;;
38021;SDS011;23832;43.216;27.946;2023-03-14T04:14:31;155.38;;;145.77;;
38021;SDS011;23832;43.216;27.946;2023-03-14T04:16:33;156.63;;;147.13;;
38021;SDS011;23832;43.216;27.946;2023-03-14T04:18:35;154.57;;;145.10;;
38021;SDS011;23832;43.216;27.946;2023-03-14T04:20:37;159.57;;;149.85;;
38021;SDS011;23832;43.216;27.946;2023-03-14T04:22:41;151.65;;;142.25;;
38021;SDS011;23832;43.216;27.946;2023-03-14T04:24:43;159.80;;;149.90;;
38021;SDS011;23832;43.216;27.946;2023-03-14T04:26:45;170.77;;;159.57;;
38021;SDS011;23832;43.216;27.946;2023-03-14T04:28:47;196.95;;;181.73;;
38021;SDS011;23832;43.216;27.946;2023-03-14T04:30:49;219.88;;;201.43;;
38021;SDS011;23832;43.216;27.946;2023-03-14T04:32:51;266.27;;;242.05;;
38021;SDS011;23832;43.216;27.946;2023-03-14T04:34:54;201.75;;;186.15;;
38021;SDS011;23832;43.216;27.946;2023-03-14T04:36:56;177.65;;;165.00;;
38021;SDS011;23832;43.216;27.946;2023-03-14T04:38:59;196.05;;;181.05;;
38021;SDS011;23832;43.216;27.946;2023-03-14T04:41:01;236.20;;;215.55;;
38021;SDS011;23832;43.216;27.946;2023-03-14T04:43:03;260.48;;;237.20;;
38021;SDS011;23832;43.216;27.946;2023-03-14T04:45:06;239.07;;;218.57;;
38021;SDS011;23832;43.216;27.946;2023-03-14T04:47:09;199.60;;;184.27;;
38021;SDS011;23832;43.216;27.946;2023-03-14T04:49:11;185.95;;;172.10;;
38021;SDS011;23832;43.216;27.946;2023-03-14T04:51:13;174.32;;;162.52;;
38021;SDS011;23832;43.216;27.946;2023-03-14T04:53:15;166.70;;;155.65;;
38021;SDS011;23832;43.216;27.946;2023-03-14T04:55:19;161.00;;;150.20;;
38021;SDS011;23832;43.216;27.946;2023-03-14T04:57:21;180.88;;;167.68;;
38021;SDS011;23832;43.216;27.946;2023-03-14T04:59:23;222.85;;;204.65;;
38021;SDS011;23832;43.216;27.946;2023-03-14T05:01:26;214.75;;;197.45;;
38021;SDS011;23832;43.216;27.946;2023-03-14T05:03:27;190.57;;;176.77;;
38021;SDS011;23832;43.216;27.946;2023-03-14T05:05:30;171.48;;;160.05;;
38021;SDS011;23832;43.216;27.946;2023-03-14T05:07:32;164.07;;;153.13;;
38021;SDS011;23832;43.216;27.946;2023-03-14T05:09:34;164.45;;;154.02;;
38021;SDS011;23832;43.216;27.946;2023-03-14T05:11:37;158.90;;;149.00;;
38021;SDS011;23832;43.216;27.946;2023-03-14T05:13:39;157.20;;;147.20;;
38021;SDS011;23832;43.216;27.946;2023-03-14T05:15:41;156.85;;;147.15;;
38021;SDS011;23832;43.216;27.946;2023-03-14T05:17:43;154.73;;;145.13;;
38021;SDS011;23832;43.216;27.946;2023-03-14T05:19:46;155.00;;;145.32;;
38021;SDS011;23832;43.216;27.946;2023-03-14T05:21:48;156.85;;;146.95;;
38021;SDS011;23832;43.216;27.946;2023-03-14T05:23:50;155.65;;;146.00;;
38021;SDS011;23832;43.216;27.946;2023-03-14T05:25:52;150.52;;;141.32;;
38021;SDS011;23832;43.216;27.946;2023-03-14T05:27:56;153.35;;;143.82;;
38021;SDS011;23832;43.216;27.946;2023-03-14T05:29:58;153.13;;;143.45;;
38021;SDS011;23832;43.216;27.946;2023-03-14T05:32:00;155.60;;;144.98;;
38021;SDS011;23832;43.216;27.946;2023-03-14T05:34:02;156.32;;;146.35;;
38021;SDS011;23832;43.216;27.946;2023-03-14T05:36:05;152.98;;;143.05;;
38021;SDS011;23832;43.216;27.946;2023-03-14T05:38:08;152.32;;;142.30;;
38021;SDS011;23832;43.216;27.946;2023-03-14T05:40:11;155.43;;;145.50;;
38021;SDS011;23832;43.216;27.946;2023-03-14T05:42:13;152.50;;;142.90;;
38021;SDS011;23832;43.216;27.946;2023-03-14T05:44:17;152.90;;;143.27;;
38021;SDS011;23832;43.216;27.946;2023-03-14T05:46:19;151.05;;;141.52;;
38021;SDS011;23832;43.216;27.946;2023-03-14T05:48:21;146.60;;;136.98;;
38021;SDS011;23832;43.216;27.946;2023-03-14T05:50:23;145.50;;;136.38;;
38021;SDS011;23832;43.216;27.946;2023-03-14T05:52:25;146.32;;;137.13;;
38021;SDS011;23832;43.216;27.946;2023-03-14T05:54:27;145.07;;;136.00;;
38021;SDS011;23832;43.216;27.946;2023-03-14T05:56:29;146.60;;;136.98;;
38021;SDS011;23832;43.216;27.946;2023-03-14T05:58:31;149.70;;;140.40;;
38021;SDS011;23832;43.216;27.946;2023-03-14T06:00:35;145.13;;;136.25;;
38021;SDS011;23832;43.216;27.946;2023-03-14T06:02:36;145.48;;;136.35;;
38021;SDS011;23832;43.216;27.946;2023-03-14T06:04:39;144.05;;;134.80;;
38021;SDS011;23832;43.216;27.946;2023-03-14T06:06:41;145.55;;;136.20;;
38021;SDS011;23832;43.216;27.946;2023-03-14T06:08:43;143.65;;;134.95;;
38021;SDS011;23832;43.216;27.946;2023-03-14T06:10:45;142.60;;;133.35;;
38021;SDS011;23832;43.216;27.946;2023-03-14T06:12:47;144.23;;;134.98;;
38021;SDS011;23832;43.216;27.946;2023-03-14T06:14:49;143.57;;;134.70;;
38021;SDS011;23832;43.216;27.946;2023-03-14T06:16:53;142.70;;;133.88;;
38021;SDS011;23832;43.216;27.946;2023-03-14T06:18:55;138.57;;;130.02;;
38021;SDS011;23832;43.216;27.946;2023-03-14T06:20:57;139.80;;;131.20;;
38021;SDS011;23832;43.216;27.946;2023-03-14T06:22:59;140.68;;;132.18;;
38021;SDS011;23832;43.216;27.946;2023-03-14T06:25:01;142.73;;;133.98;;
38021;SDS011;23832;43.216;27.946;2023-03-14T06:27:03;143.30;;;134.50;;
38021;SDS011;23832;43.216;27.946;2023-03-14T06:29:07;154.50;;;143.57;;
38021;SDS011;23832;43.216;27.946;2023-03-14T06:31:09;213.88;;;196.30;;
38021;SDS011;23832;43.216;27.946;2023-03-14T06:33:12;162.35;;;150.93;;
38021;SDS011;23832;43.216;27.946;2023-03-14T06:35:14;156.45;;;145.98;;
38021;SDS011;23832;43.216;27.946;2023-03-14T06:37:16;149.60;;;140.02;;
38021;SDS011;23832;43.216;27.946;2023-03-14T06:39:19;139.48;;;130.90;;
38021;SDS011;23832;43.216;27.946;2023-03-14T06:41:20;143.55;;;134.82;;
38021;SDS011;23832;43.216;27.946;2023-03-14T06:43:23;142.23;;;133.55;;
38021;SDS011;23832;43.216;27.946;2023-03-14T06:45:25;142.80;;;134.02;;
38021;SDS011;23832;43.216;27.946;2023-03-14T06:47:27;243.98;;;224.35;;
38021;SDS011;23832;43.216;27.946;2023-03-14T06:49:31;203.82;;;188.35;;
38021;SDS011;23832;43.216;27.946;2023-03-14T06:51:33;157.05;;;146.45;;
38021;SDS011;23832;43.216;27.946;2023-03-14T06:53:35;149.18;;;139.68;;
38021;SDS011;23832;43.216;27.946;2023-03-14T06:55:37;298.27;;;270.77;;
38021;SDS011;23832;43.216;27.946;2023-03-14T06:57:39;187.23;;;173.50;;
38021;SDS011;23832;43.216;27.946;2023-03-14T06:59:41;248.07;;;227.98;;
38021;SDS011;23832;43.216;27.946;2023-03-14T07:01:43;152.10;;;142.07;;
38021;SDS011;23832;43.216;27.946;2023-03-14T07:03:45;158.88;;;147.98;;
38021;SDS011;23832;43.216;27.946;2023-03-14T07:05:51;145.88;;;137.00;;
38021;SDS011;23832;43.216;27.946;2023-03-14T07:08:02;137.10;;;128.93;;
38021;SDS011;23832;43.216;27.946;2023-03-14T07:10:05;142.73;;;134.30;;
38021;SDS011;23832;43.216;27.946;2023-03-14T07:12:08;139.48;;;131.18;;
38021;SDS011;23832;43.216;27.946;2023-03-14T07:14:10;134.90;;;126.82;;
38021;SDS011;23832;43.216;27.946;2023-03-14T07:16:12;139.70;;;131.40;;
38021;SDS011;23832;43.216;27.946;2023-03-14T07:18:14;141.70;;;133.20;;
38021;SDS011;23832;43.216;27.946;2023-03-14T07:20:17;138.18;;;129.98;;
38021;SDS011;23832;43.216;27.946;2023-03-14T07:22:20;140.63;;;132.32;;
38021;SDS011;23832;43.216;27.946;2023-03-14T07:24:22;138.88;;;130.63;;
38021;SDS011;23832;43.216;27.946;2023-03-14T07:26:24;139.10;;;130.98;;
38021;SDS011;23832;43.216;27.946;2023-03-14T07:28:26;225.10;;;208.07;;
38021;SDS011;23832;43.216;27.946;2023-03-14T07:30:28;207.43;;;192.27;;
38021;SDS011;23832;43.216;27.946;2023-03-14T07:32:33;153.25;;;143.35;;
38021;SDS011;23832;43.216;27.946;2023-03-14T07:34:37;143.02;;;134.52;;
38021;SDS011;23832;43.216;27.946;2023-03-14T07:36:39;139.00;;;130.68;;
38021;SDS011;23832;43.216;27.946;2023-03-14T07:38:47;139.07;;;130.35;;
38021;SDS011;23832;43.216;27.946;2023-03-14T07:40:57;139.63;;;131.40;;
38021;SDS011;23832;43.216;27.946;2023-03-14T07:43:01;135.70;;;127.70;;
38021;SDS011;23832;43.216;27.946;2023-03-14T07:45:03;137.57;;;129.48;;
38021;SDS011;23832;43.216;27.946;2023-03-14T07:47:06;138.40;;;130.18;;
38021;SDS011;23832;43.216;27.946;2023-03-14T07:49:08;138.88;;;130.38;;
38021;SDS011;23832;43.216;27.946;2023-03-14T07:51:10;139.10;;;130.82;;
38021;SDS011;23832;43.216;27.946;2023-03-14T07:53:12;139.52;;;131.18;;
38021;SDS011;23832;43.216;27.946;2023-03-14T07:55:19;137.35;;;129.35;;
38021;SDS011;23832;43.216;27.946;2023-03-14T07:57:21;136.05;;;128.05;;
38021;SDS011;23832;43.216;27.946;2023-03-14T07:59:23;140.30;;;132.07;;
38021;SDS011;23832;43.216;27.946;2023-03-14T08:01:26;138.30;;;129.95;;
38021;SDS011;23832;43.216;27.946;2023-03-14T08:03:27;135.77;;;127.80;;
38021;SDS011;23832;43.216;27.946;2023-03-14T08:05:29;136.93;;;128.95;;
38021;SDS011;23832;43.216;27.946;2023-03-14T08:07:31;136.85;;;128.85;;
38021;SDS011;23832;43.216;27.946;2023-03-14T08:09:34;137.65;;;129.30;;
38021;SDS011;23832;43.216;27.946;2023-03-14T08:11:37;140.63;;;132.32;;
38021;SDS011;23832;43.216;27.946;2023-03-14T08:13:39;137.98;;;129.88;;
38021;SDS011;23832;43.216;27.946;2023-03-14T08:15:47;138.93;;;130.55;;
38021;SDS011;23832;43.216;27.946;2023-03-14T08:17:49;139.23;;;131.05;;
38021;SDS011;23832;43.216;27.946;2023-03-14T08:19:51;140.35;;;132.20;;
38021;SDS011;23832;43.216;27.946;2023-03-14T08:21:54;138.88;;;130.55;;
38021;SDS011;23832;43.216;27.946;2023-03-14T08:23:57;141.35;;;133.05;;
38021;SDS011;23832;43.216;27.946;2023-03-14T08:26:01;140.18;;;132.07;;
38021;SDS011;23832;43.216;27.946;2023-03-14T08:28:07;140.15;;;131.98;;
38021;SDS011;23832;43.216;27.946;2023-03-14T08:30:10;140.90;;;132.52;;
38021;SDS011;23832;43.216;27.946;2023-03-14T08:32:14;141.65;;;133.32;;
38021;SDS011;23832;43.216;27.946;2023-03-14T08:34:20;133.45;;;125.68;;
38021;SDS011;23832;43.216;27.946;2023-03-14T08:36:23;139.57;;;131.48;;
38021;SDS011;23832;43.216;27.946;2023-03-14T08:38:25;138.32;;;130.32;;
38021;SDS011;23832;43.216;27.946;2023-03-14T08:40:28;136.60;;;128.48;;
38021;SDS011;23832;43.216;27.946;2023-03-14T08:42:33;133.25;;;125.45;;
38021;SDS011;23832;43.216;27.946;2023-03-14T08:44:39;136.05;;;127.85;;
38021;SDS011;23832;43.216;27.946;2023-03-14T08:46:42;137.05;;;128.98;;
38021;SDS011;23832;43.216;27.946;2023-03-14T08:48:44;138.48;;;130.38;;
38021;SDS011;23832;43.216;27.946;2023-03-14T08:50:46;138.73;;;130.73;;
38021;SDS011;23832;43.216;27.946;2023-03-14T08:52:48;138.00;;;130.00;;
38021;SDS011;23832;43.216;27.946;2023-03-14T08:54:50;139.15;;;130.98;;
38021;SDS011;23832;43.216;27.946;2023-03-14T08:56:52;136.88;;;128.88;;
38021;SDS011;23832;43.216;27.946;2023-03-14T08:58:54;138.38;;;130.32;;
38021;SDS011;23832;43.216;27.946;2023-03-14T09:00:57;136.52;;;128.63;;
38021;SDS011;23832;43.216;27.946;2023-03-14T09:02:59;137.20;;;128.98;;
38021;SDS011;23832;43.216;27.946;2023-03-14T09:05:03;139.77;;;131.68;;
38021;SDS011;23832;43.216;27.946;2023-03-14T09:07:06;135.23;;;127.43;;
38021;SDS011;23832;43.216;27.946;2023-03-14T09:09:08;135.25;;;127.32;;
38021;SDS011;23832;43.216;27.946;2023-03-14T09:11:10;135.85;;;127.97;;
38021;SDS011;23832;43.216;27.946;2023-03-14T09:13:12;136.23;;;128.23;;
38021;SDS011;23832;43.216;27.946;2023-03-14T09:15:17;135.70;;;127.72;;
38021;SDS011;23832;43.216;27.946;2023-03-14T09:17:20;139.00;;;130.98;;
38021;SDS011;23832;43.216;27.946;2023-03-14T09:19:22;133.77;;;126.00;;
38021;SDS011;23832;43.216;27.946;2023-03-14T09:21:24;133.82;;;126.07;;
38021;SDS011;23832;43.216;27.946;2023-03-14T09:23:28;134.23;;;126.50;;
38021;SDS011;23832;43.216;27.946;2023-03-14T09:25:31;139.25;;;131.25;;
38021;SDS011;23832;43.216;27.946;2023-03-14T09:27:33;134.32;;;126.47;;
38021;SDS011;23832;43.216;27.946;2023-03-14T09:29:36;136.18;;;128.10;;
38021;SDS011;23832;43.216;27.946;2023-03-14T09:31:38;135.18;;;127.32;;
38021;SDS011;23832;43.216;27.946;2023-03-14T09:35:58;130.50;;;122.90;;
38021;SDS011;23832;43.216;27.946;2023-03-14T09:38:00;133.90;;;126.20;;
38021;SDS011;23832;43.216;27.946;2023-03-14T09:40:02;137.60;;;129.50;;
38021;SDS011;23832;43.216;27.946;2023-03-14T09:42:13;134.38;;;126.45;;
38021;SDS011;23832;43.216;27.946;2023-03-14T09:44:19;134.77;;;126.78;;
38021;SDS011;23832;43.216;27.946;2023-03-14T09:46:25;135.18;;;127.40;;
38021;SDS011;23832;43.216;27.946;2023-03-14T09:48:29;138.05;;;130.05;;
38021;SDS011;23832;43.216;27.946;2023-03-14T09:50:36;137.85;;;129.73;;
38021;SDS011;23832;43.216;27.946;2023-03-14T09:52:42;138.73;;;130.55;;
38021;SDS011;23832;43.216;27.946;2023-03-14T09:54:47;137.50;;;129.60;;
38021;SDS011;23832;43.216;27.946;2023-03-14T09:56:51;138.13;;;130.13;;
38021;SDS011;23832;43.216;27.946;2023-03-14T09:58:54;136.75;;;128.70;;
38021;SDS011;23832;43.216;27.946;2023-03-14T10:01:00;138.93;;;130.60;;
38021;SDS011;23832;43.216;27.946;2023-03-14T10:03:12;137.82;;;129.93;;
38021;SDS011;23832;43.216;27.946;2023-03-14T10:07:28;139.23;;;131.18;;
38021;SDS011;23832;43.216;27.946;2023-03-14T10:09:34;137.85;;;129.82;;
38021;SDS011;23832;43.216;27.946;2023-03-14T10:11:38;139.57;;;131.57;;
38021;SDS011;23832;43.216;27.946;2023-03-14T10:13:50;140.80;;;132.50;;
38021;SDS011;23832;43.216;27.946;2023-03-14T10:16:05;137.45;;;129.35;;
38021;SDS011;23832;43.216;27.946;2023-03-14T10:18:28;137.90;;;129.80;;
38021;SDS011;23832;43.216;27.946;2023-03-14T10:20:31;140.25;;;132.05;;
38021;SDS011;23832;43.216;27.946;2023-03-14T10:22:36;136.75;;;128.75;;
38021;SDS011;23832;43.216;27.946;2023-03-14T10:24:39;138.38;;;130.38;;
38021;SDS011;23832;43.216;27.946;2023-03-14T10:26:48;138.80;;;130.80;;
38021;SDS011;23832;43.216;27.946;2023-03-14T10:29:01;141.30;;;132.80;;
38021;SDS011;23832;43.216;27.946;2023-03-14T10:31:05;139.55;;;131.45;;
38021;SDS011;23832;43.216;27.946;2023-03-14T10:33:12;135.00;;;127.20;;
38021;SDS011;23832;43.216;27.946;2023-03-14T10:35:23;138.25;;;130.25;;
38021;SDS011;23832;43.216;27.946;2023-03-14T10:37:26;138.68;;;130.70;;
38021;SDS011;23832;43.216;27.946;2023-03-14T10:39:35;138.27;;;130.18;;
38021;SDS011;23832;43.216;27.946;2023-03-14T10:41:46;141.63;;;133.32;;
38021;SDS011;23832;43.216;27.946;2023-03-14T10:43:50;138.57;;;130.52;;
38021;SDS011;23832;43.216;27.946;2023-03-14T10:45:56;138.32;;;130.20;;
38021;SDS011;23832;43.216;27.946;2023-03-14T10:48:05;140.25;;;131.95;;
38021;SDS011;23832;43.216;27.946;2023-03-14T10:50:22;134.95;;;126.97;;
38021;SDS011;23832;43.216;27.946;2023-03-14T10:52:27;135.63;;;127.70;;
38021;SDS011;23832;43.216;27.946;2023-03-14T10:54:31;135.43;;;127.35;;
38021;SDS011;23832;43.216;27.946;2023-03-14T10:56:35;136.57;;;128.75;;
38021;SDS011;23832;43.216;27.946;2023-03-14T10:58:40;134.88;;;127.22;;
38021;SDS011;23832;43.216;27.946;2023-03-14T11:00:46;140.23;;;131.98;;
38021;SDS011;23832;43.216;27.946;2023-03-14T11:02:58;140.15;;;132.05;;
38021;SDS011;23832;43.216;27.946;2023-03-14T11:05:12;135.43;;;127.63;;
38021;SDS011;23832;43.216;27.946;2023-03-14T11:07:22;134.70;;;126.75;;
38021;SDS011;23832;43.216;27.946;2023-03-14T11:09:29;134.82;;;126.80;;
38021;SDS011;23832;43.216;27.946;2023-03-14T11:13:46;137.63;;;129.65;;
38021;SDS011;23832;43.216;27.946;2023-03-14T11:15:59;136.43;;;128.43;;
38021;SDS011;23832;43.216;27.946;2023-03-14T11:21:05;136.48;;;128.57;;
38021;SDS011;23832;43.216;27.946;2023-03-14T11:23:13;134.43;;;126.63;;
38021;SDS011;23832;43.216;27.946;2023-03-14T11:25:21;135.88;;;128.07;;
38021;SDS011;23832;43.216;27.946;2023-03-14T11:27:36;138.43;;;130.35;;
38021;SDS011;23832;43.216;27.946;2023-03-14T11:29:45;134.65;;;126.80;;
38021;SDS011;23832;43.216;27.946;2023-03-14T11:31:55;137.10;;;128.73;;
38021;SDS011;23832;43.216;27.946;2023-03-14T11:34:04;134.45;;;126.63;;
38021;SDS011;23832;43.216;27.946;2023-03-14T11:36:17;136.15;;;128.15;;
38021;SDS011;23832;43.216;27.946;2023-03-14T11:38:29;138.10;;;129.90;;
38021;SDS011;23832;43.216;27.946;2023-03-14T11:40:40;135.07;;;127.22;;
38021;SDS011;23832;43.216;27.946;2023-03-14T11:42:46;135.73;;;127.90;;
38021;SDS011;23832;43.216;27.946;2023-03-14T11:44:56;138.75;;;130.68;;